Hacksneck, Virginia
Current Conditions -  °F | °C
As of 5:55 PM on Wednesday 22 Oct 2014 (Local Time) from KMFV Reporting Station
Overcast Overcast  
Wind Chill: 55°   Ceiling: 1400
Heat Index: 55°   Visibility: 10mi
Dew Point: 50°   Wind: 18mph
Humidity: 82%   Direction: 350°N
Pressure: 29.8"   Gusts: 30mph
Location:  37.65°N, 75.87°W
Report Text: KMFV 222155Z AUTO 35016G26KT 10SM OVC014 13/10 A2980 RMK AO2
Loading
Personal Weather Stations






























Interactive Weather Map
Tropical Storm Tracking
New forecast layout! Learn more

10-Day Weather Forecast

Advertisements
Track Severe Weather on mobile